Terminal Aerodrome Forecast
Issued by NWS Shreveport, LA

Home | Current Version | Previous Version | Text Only | Print | Product List | Glossary On
Versions: 1 2 3 4 5 6 7 8 9 10 11 12 13 14 15 16 17 18 19 20 21 22 23 24 25 26
000
FTUS44 KSHV 172320
TAFSHV
TAF
KSHV 172320Z 1800/1824 01005KT P6SM VCSH SCT007 BKN050 OVC080
      TEMPO 1802/1806 5SM -SHRA BR OVC007
     FM180600 03005KT 5SM BR VCSH OVC007
     FM180800 04005KT 5SM -SHRA BR OVC007
      TEMPO 1810/1814 3SM -TSRA BR OVC005CB
     FM181400 07006KT 5SM -SHRA BR OVC005
     FM181800 08006KT 5SM -SHRA BR OVC008=

USA.gov is the U.S. government's official web portal to all federal, state and local government web resources and services.